This is the latest recevied weather packets stored in our database for station/object IK2YOU-3. If no packets are shown the sender has not sent any weather packets the latest 10 day(s).
| Time | Temp. | Humidity | Pressure | Rain* | Wind** | Luminosity | Snow |
|---|---|---|---|---|---|---|---|
| 1778154838 | 21.67° C | 55% | 1010.6 hPa | 0 mm | - | 612 W/m² | - |
| 1778154366 | 21.67° C | 55% | 1010.5 hPa | 0 mm | - | 568 W/m² | - |
| 1778153636 | 22.22° C | 55% | 1010.7 hPa | 0 mm | - | 584 W/m² | - |
| 1778153035 | 21.11° C | 55% | 1010.8 hPa | 0 mm | - | 576 W/m² | - |
| 1778152438 | 21.11° C | 61% | 1010.9 hPa | 0 mm | - | 567 W/m² | - |
| 1778151964 | 20.56° C | 59% | 1010.9 hPa | 0 mm | - | 531 W/m² | - |
| 1778151234 | 20.56° C | 61% | 1010.9 hPa | 0 mm | - | 542 W/m² | - |
| 1778150761 | 20.56° C | 61% | 1011 hPa | 0 mm | - | 523 W/m² | - |
| 1778150034 | 20.56° C | 63% | 1011.1 hPa | 0 mm | - | 691 W/m² | - |
| 1778149433 | 20.56° C | 59% | 1011.1 hPa | 0 mm | - | 623 W/m² | - |
| 1778148834 | 19.44° C | 64% | 1011.3 hPa | 0 mm | - | 528 W/m² | - |
| 1778148234 | 19.44° C | 63% | 1011.2 hPa | 0 mm | - | 545 W/m² | - |
| 1778147634 | 20° C | 62% | 1011.3 hPa | 0 mm | - | 576 W/m² | - |
| 1778147162 | 19.44° C | 64% | 1011.3 hPa | 0 mm | - | 560 W/m² | - |
| 1778146434 | 19.44° C | 67% | 1011.3 hPa | 0 mm | - | 557 W/m² | - |
| 1778145834 | 18.89° C | 66% | 1011.3 hPa | 0 mm | - | 556 W/m² | - |
| 1778145234 | 18.89° C | 72% | 1011.3 hPa | 0 mm | - | 572 W/m² | - |
| 1778144761 | 18.33° C | 72% | 1011.2 hPa | 0 mm | - | 617 W/m² | - |
| 1778144033 | 17.78° C | 78% | 1011.2 hPa | 0 mm | - | 554 W/m² | - |
| 1778143433 | 17.22° C | 77% | 1011.3 hPa | 0 mm | - | 576 W/m² | - |
| 1778142963 | 15.56° C | 82% | 1011.2 hPa | 0 mm | - | 409 W/m² | - |
| 1778142233 | 14.44° C | 84% | 1011.2 hPa | 0 mm | - | 138 W/m² | - |
| 1778141633 | 15° C | 84% | 1011.2 hPa | 0 mm | - | 36 W/m² | - |
| 1778141034 | 15° C | 83% | 1011.3 hPa | 0 mm | - | 42 W/m² | - |
| 1778140433 | 15° C | 83% | 1011.2 hPa | 0 mm | - | 64 W/m² | - |
* Rain latest hour (hover to see other rain measurements)
** Current wind speed in m/s (hover to see current wind gust speed)